E.r.bristol — A8XQ6 — position and weather

sailwx.info

Track history (hours):
 
Tides and Currents Weather Stations Pressure Air Temp Water Temp Dewpoint Dewpoint Depression Visibility Wind Speed Wind Dir Waves Ship Positions

E.r.bristol

Last reported at 2014-Sep-15 18:13 UTC. Time now 2014-Sep-17 15:37 UTC.
Position N 37°43' E 024°12'.

Length 188 m; draft 6.7 m.

Type: Cargo ship. MMSI: 636092151.

Date/timePositionNaut miles runAvg speedWind from/ knotsBaromVisibWave heightAir tempDewpointWater temp
2014-Sep-15 18:13N 37°43' E 024°12'1011.5
2014-Sep-15 17:20N 37°32' E 024°12'911.3
2014-Sep-15 16:33N 37°24' E 024°13'1311.1
2014-Sep-15 15:24N 37°11' E 024°10'910.9
2014-Sep-15 14:33N 37°02' E 024°09'1110.9
2014-Sep-15 13:33N 36°51' E 024°09'1111.3
2014-Sep-15 12:33N 36°40' E 024°12'1111.0
2014-Sep-15 11:33N 36°32' E 024°21'1111.0
2014-Sep-15 10:33N 36°26' E 024°33'1110.8
2014-Sep-15 09:33N 36°20' E 024°44'1110.8
2014-Sep-15 08:33N 36°14' E 024°55'1111.2
2014-Sep-15 07:33N 36°07' E 025°07'1111.4
2014-Sep-15 06:33N 36°01' E 025°18'1211.6
2014-Sep-15 05:33N 35°55' E 025°30'1111.1
2014-Sep-15 04:33N 35°49' E 025°42'1110.8
2014-Sep-15 03:33N 35°43' E 025°53'14510.3
2014-Sep-14 13:31N 33°44' E 027°35'  
Track history (hours):
 
Tides and Currents Weather Stations Pressure Air Temp Water Temp Dewpoint Dewpoint Depression Visibility Wind Speed Wind Dir Waves Ship Positions

E.r.bristol

Last reported at 2014-Sep-15 18:13 UTC. Time now 2014-Sep-17 15:37 UTC.
Position N 37°43' E 024°12'.

Length 188 m; draft 6.7 m.

Type: Cargo ship. MMSI: 636092151.

Date/timePositionNaut miles runAvg speedWind from/ knotsBaromVisibWave heightAir tempDewpointWater temp
2014-Sep-15 18:13N 37°43' E 024°12'1011.5
2014-Sep-15 17:20N 37°32' E 024°12'911.3
2014-Sep-15 16:33N 37°24' E 024°13'1311.1
2014-Sep-15 15:24N 37°11' E 024°10'910.9
2014-Sep-15 14:33N 37°02' E 024°09'1110.9
2014-Sep-15 13:33N 36°51' E 024°09'1111.3
2014-Sep-15 12:33N 36°40' E 024°12'1111.0
2014-Sep-15 11:33N 36°32' E 024°21'1111.0
2014-Sep-15 10:33N 36°26' E 024°33'1110.8
2014-Sep-15 09:33N 36°20' E 024°44'1110.8
2014-Sep-15 08:33N 36°14' E 024°55'1111.2
2014-Sep-15 07:33N 36°07' E 025°07'1111.4
2014-Sep-15 06:33N 36°01' E 025°18'1211.6
2014-Sep-15 05:33N 35°55' E 025°30'1111.1
2014-Sep-15 04:33N 35°49' E 025°42'1110.8
2014-Sep-15 03:33N 35°43' E 025°53'14510.3
2014-Sep-14 13:31N 33°44' E 027°35'  

Dump ship's entire track history